sensor_id;sensor_type;location;lat;lon;timestamp;P1;durP1;ratioP1;P2;durP2;ratioP2
65879;SDS011;52661;51.364;6.054;2022-12-07T00:01:41;9.68;;;5.20;;
65879;SDS011;52661;51.364;6.054;2022-12-07T00:04:09;10.43;;;4.78;;
65879;SDS011;52661;51.364;6.054;2022-12-07T00:11:30;11.73;;;4.28;;
65879;SDS011;52661;51.364;6.054;2022-12-07T00:13:57;9.07;;;4.22;;
65879;SDS011;52661;51.364;6.054;2022-12-07T00:16:25;12.32;;;4.57;;
65879;SDS011;52661;51.364;6.054;2022-12-07T00:18:53;9.73;;;5.00;;
65879;SDS011;52661;51.364;6.054;2022-12-07T00:21:20;14.00;;;7.20;;
65879;SDS011;52661;51.364;6.054;2022-12-07T00:23:47;12.30;;;5.63;;
65879;SDS011;52661;51.364;6.054;2022-12-07T00:26:23;11.35;;;4.50;;
65879;SDS011;52661;51.364;6.054;2022-12-07T00:28:52;9.35;;;4.18;;
65879;SDS011;52661;51.364;6.054;2022-12-07T00:31:20;11.73;;;4.55;;
65879;SDS011;52661;51.364;6.054;2022-12-07T00:33:46;12.48;;;5.68;;
65879;SDS011;52661;51.364;6.054;2022-12-07T00:36:13;9.00;;;4.75;;
65879;SDS011;52661;51.364;6.054;2022-12-07T00:38:40;13.00;;;5.32;;
65879;SDS011;52661;51.364;6.054;2022-12-07T00:41:10;10.05;;;5.00;;
65879;SDS011;52661;51.364;6.054;2022-12-07T00:43:38;10.23;;;5.05;;
65879;SDS011;52661;51.364;6.054;2022-12-07T00:46:05;12.40;;;5.40;;
65879;SDS011;52661;51.364;6.054;2022-12-07T00:48:30;12.15;;;5.13;;
65879;SDS011;52661;51.364;6.054;2022-12-07T00:50:56;12.55;;;4.93;;
65879;SDS011;52661;51.364;6.054;2022-12-07T00:53:22;10.27;;;4.97;;
65879;SDS011;52661;51.364;6.054;2022-12-07T00:55:47;11.98;;;5.70;;
65879;SDS011;52661;51.364;6.054;2022-12-07T00:58:13;11.98;;;5.55;;
65879;SDS011;52661;51.364;6.054;2022-12-07T01:00:39;13.45;;;5.20;;
65879;SDS011;52661;51.364;6.054;2022-12-07T01:03:06;13.70;;;5.22;;
65879;SDS011;52661;51.364;6.054;2022-12-07T01:05:33;11.98;;;4.50;;
65879;SDS011;52661;51.364;6.054;2022-12-07T01:07:58;12.15;;;5.43;;
65879;SDS011;52661;51.364;6.054;2022-12-07T01:10:24;12.90;;;4.97;;
65879;SDS011;52661;51.364;6.054;2022-12-07T01:12:49;10.20;;;4.20;;
65879;SDS011;52661;51.364;6.054;2022-12-07T01:15:14;13.53;;;6.07;;
65879;SDS011;52661;51.364;6.054;2022-12-07T01:17:40;9.75;;;4.78;;
65879;SDS011;52661;51.364;6.054;2022-12-07T01:20:05;9.90;;;4.60;;
65879;SDS011;52661;51.364;6.054;2022-12-07T01:22:35;11.50;;;5.13;;
65879;SDS011;52661;51.364;6.054;2022-12-07T01:25:05;12.63;;;6.00;;
65879;SDS011;52661;51.364;6.054;2022-12-07T01:27:32;10.93;;;4.88;;
65879;SDS011;52661;51.364;6.054;2022-12-07T01:29:58;8.45;;;4.78;;
65879;SDS011;52661;51.364;6.054;2022-12-07T01:32:23;9.38;;;4.28;;
65879;SDS011;52661;51.364;6.054;2022-12-07T01:34:49;8.13;;;4.28;;
65879;SDS011;52661;51.364;6.054;2022-12-07T01:37:14;10.80;;;5.13;;
65879;SDS011;52661;51.364;6.054;2022-12-07T01:39:39;11.57;;;5.10;;
65879;SDS011;52661;51.364;6.054;2022-12-07T01:42:08;8.95;;;5.18;;
65879;SDS011;52661;51.364;6.054;2022-12-07T01:45:14;10.90;;;5.65;;
65879;SDS011;52661;51.364;6.054;2022-12-07T01:47:38;9.85;;;4.80;;
65879;SDS011;52661;51.364;6.054;2022-12-07T01:50:04;8.10;;;4.07;;
65879;SDS011;52661;51.364;6.054;2022-12-07T01:52:31;9.93;;;4.63;;
65879;SDS011;52661;51.364;6.054;2022-12-07T01:55:01;8.10;;;4.03;;
65879;SDS011;52661;51.364;6.054;2022-12-07T01:57:31;10.05;;;4.57;;
65879;SDS011;52661;51.364;6.054;2022-12-07T01:59:59;11.20;;;4.82;;
65879;SDS011;52661;51.364;6.054;2022-12-07T02:02:26;9.43;;;4.07;;
65879;SDS011;52661;51.364;6.054;2022-12-07T02:04:58;9.32;;;4.60;;
65879;SDS011;52661;51.364;6.054;2022-12-07T02:07:25;11.98;;;4.75;;
65879;SDS011;52661;51.364;6.054;2022-12-07T02:09:53;10.05;;;4.60;;
65879;SDS011;52661;51.364;6.054;2022-12-07T02:12:19;10.02;;;4.88;;
65879;SDS011;52661;51.364;6.054;2022-12-07T02:14:45;8.07;;;4.40;;
65879;SDS011;52661;51.364;6.054;2022-12-07T02:17:13;9.50;;;5.38;;
65879;SDS011;52661;51.364;6.054;2022-12-07T02:19:58;10.82;;;5.00;;
65879;SDS011;52661;51.364;6.054;2022-12-07T02:27:47;9.68;;;4.18;;
65879;SDS011;52661;51.364;6.054;2022-12-07T02:30:19;8.88;;;4.30;;
65879;SDS011;52661;51.364;6.054;2022-12-07T02:43:24;9.40;;;4.30;;
65879;SDS011;52661;51.364;6.054;2022-12-07T02:45:58;8.85;;;4.28;;
65879;SDS011;52661;51.364;6.054;2022-12-07T02:51:32;9.98;;;4.75;;
65879;SDS011;52661;51.364;6.054;2022-12-07T02:53:59;7.57;;;3.97;;
65879;SDS011;52661;51.364;6.054;2022-12-07T03:02:46;8.57;;;3.72;;
65879;SDS011;52661;51.364;6.054;2022-12-07T03:05:15;9.00;;;4.13;;
65879;SDS011;52661;51.364;6.054;2022-12-07T03:11:00;7.78;;;3.78;;
65879;SDS011;52661;51.364;6.054;2022-12-07T03:13:49;6.80;;;3.40;;
65879;SDS011;52661;51.364;6.054;2022-12-07T03:18:46;8.10;;;4.27;;
65879;SDS011;52661;51.364;6.054;2022-12-07T03:21:16;7.63;;;3.90;;
65879;SDS011;52661;51.364;6.054;2022-12-07T03:23:46;8.63;;;4.20;;
65879;SDS011;52661;51.364;6.054;2022-12-07T03:26:16;7.55;;;4.70;;
65879;SDS011;52661;51.364;6.054;2022-12-07T03:28:45;6.65;;;2.97;;
65879;SDS011;52661;51.364;6.054;2022-12-07T03:31:18;7.65;;;3.72;;
65879;SDS011;52661;51.364;6.054;2022-12-07T03:34:01;8.32;;;3.72;;
65879;SDS011;52661;51.364;6.054;2022-12-07T03:36:57;7.63;;;3.78;;
65879;SDS011;52661;51.364;6.054;2022-12-07T03:39:39;9.65;;;3.55;;
65879;SDS011;52661;51.364;6.054;2022-12-07T03:42:09;7.15;;;3.38;;
65879;SDS011;52661;51.364;6.054;2022-12-07T03:44:36;6.60;;;3.67;;
65879;SDS011;52661;51.364;6.054;2022-12-07T03:50:02;8.00;;;3.42;;
65879;SDS011;52661;51.364;6.054;2022-12-07T03:55:19;5.63;;;3.17;;
65879;SDS011;52661;51.364;6.054;2022-12-07T03:57:50;8.50;;;3.78;;
65879;SDS011;52661;51.364;6.054;2022-12-07T04:00:19;7.32;;;3.65;;
65879;SDS011;52661;51.364;6.054;2022-12-07T04:02:45;9.97;;;4.27;;
65879;SDS011;52661;51.364;6.054;2022-12-07T04:05:10;7.60;;;4.60;;
65879;SDS011;52661;51.364;6.054;2022-12-07T04:07:36;10.15;;;3.65;;
65879;SDS011;52661;51.364;6.054;2022-12-07T04:10:02;6.70;;;3.60;;
65879;SDS011;52661;51.364;6.054;2022-12-07T04:12:28;8.70;;;3.45;;
65879;SDS011;52661;51.364;6.054;2022-12-07T04:14:53;7.90;;;3.97;;
65879;SDS011;52661;51.364;6.054;2022-12-07T04:17:18;9.53;;;3.57;;
65879;SDS011;52661;51.364;6.054;2022-12-07T04:19:44;9.40;;;4.05;;
65879;SDS011;52661;51.364;6.054;2022-12-07T04:22:09;7.67;;;3.87;;
65879;SDS011;52661;51.364;6.054;2022-12-07T04:24:34;9.33;;;3.63;;
65879;SDS011;52661;51.364;6.054;2022-12-07T04:27:00;8.65;;;4.20;;
65879;SDS011;52661;51.364;6.054;2022-12-07T04:29:25;7.40;;;3.22;;
65879;SDS011;52661;51.364;6.054;2022-12-07T04:31:51;5.90;;;3.33;;
65879;SDS011;52661;51.364;6.054;2022-12-07T04:34:17;7.65;;;3.67;;
65879;SDS011;52661;51.364;6.054;2022-12-07T04:36:43;6.65;;;2.92;;
65879;SDS011;52661;51.364;6.054;2022-12-07T04:39:14;7.53;;;3.55;;
65879;SDS011;52661;51.364;6.054;2022-12-07T04:41:46;8.50;;;3.35;;
65879;SDS011;52661;51.364;6.054;2022-12-07T04:44:12;8.43;;;3.33;;
65879;SDS011;52661;51.364;6.054;2022-12-07T04:46:39;8.90;;;3.10;;
65879;SDS011;52661;51.364;6.054;2022-12-07T04:49:05;7.18;;;3.35;;
65879;SDS011;52661;51.364;6.054;2022-12-07T04:51:30;5.15;;;3.03;;
65879;SDS011;52661;51.364;6.054;2022-12-07T04:53:56;6.17;;;3.57;;
65879;SDS011;52661;51.364;6.054;2022-12-07T04:56:22;10.68;;;3.08;;
65879;SDS011;52661;51.364;6.054;2022-12-07T04:58:48;7.47;;;3.53;;
65879;SDS011;52661;51.364;6.054;2022-12-07T05:01:16;7.45;;;3.33;;
65879;SDS011;52661;51.364;6.054;2022-12-07T05:03:42;6.32;;;3.45;;
65879;SDS011;52661;51.364;6.054;2022-12-07T05:06:08;6.50;;;3.05;;
65879;SDS011;52661;51.364;6.054;2022-12-07T05:08:35;6.78;;;2.60;;
65879;SDS011;52661;51.364;6.054;2022-12-07T05:11:01;8.95;;;3.60;;
65879;SDS011;52661;51.364;6.054;2022-12-07T05:13:28;9.18;;;2.45;;
65879;SDS011;52661;51.364;6.054;2022-12-07T05:15:53;7.60;;;3.03;;
65879;SDS011;52661;51.364;6.054;2022-12-07T05:18:19;6.30;;;2.90;;
65879;SDS011;52661;51.364;6.054;2022-12-07T05:20:44;6.37;;;3.00;;
65879;SDS011;52661;51.364;6.054;2022-12-07T05:23:10;5.97;;;2.60;;
65879;SDS011;52661;51.364;6.054;2022-12-07T05:25:36;8.02;;;3.05;;
65879;SDS011;52661;51.364;6.054;2022-12-07T05:28:02;7.40;;;1.80;;
65879;SDS011;52661;51.364;6.054;2022-12-07T05:30:28;5.95;;;2.47;;
65879;SDS011;52661;51.364;6.054;2022-12-07T05:32:53;7.55;;;2.30;;
65879;SDS011;52661;51.364;6.054;2022-12-07T05:35:19;4.88;;;2.22;;
65879;SDS011;52661;51.364;6.054;2022-12-07T05:37:44;5.18;;;2.65;;
65879;SDS011;52661;51.364;6.054;2022-12-07T05:40:10;6.60;;;2.80;;
65879;SDS011;52661;51.364;6.054;2022-12-07T05:42:38;7.38;;;2.45;;
65879;SDS011;52661;51.364;6.054;2022-12-07T05:45:04;5.75;;;2.47;;
65879;SDS011;52661;51.364;6.054;2022-12-07T05:47:30;8.13;;;2.53;;
65879;SDS011;52661;51.364;6.054;2022-12-07T05:49:55;8.75;;;2.63;;
65879;SDS011;52661;51.364;6.054;2022-12-07T05:52:20;5.50;;;2.27;;
65879;SDS011;52661;51.364;6.054;2022-12-07T05:54:46;7.45;;;3.05;;
65879;SDS011;52661;51.364;6.054;2022-12-07T05:57:11;5.90;;;2.73;;
65879;SDS011;52661;51.364;6.054;2022-12-07T05:59:37;6.93;;;2.03;;
65879;SDS011;52661;51.364;6.054;2022-12-07T06:02:06;5.03;;;1.80;;
65879;SDS011;52661;51.364;6.054;2022-12-07T06:04:37;5.20;;;2.33;;
65879;SDS011;52661;51.364;6.054;2022-12-07T06:07:04;5.80;;;2.65;;
65879;SDS011;52661;51.364;6.054;2022-12-07T06:09:30;6.13;;;2.47;;
65879;SDS011;52661;51.364;6.054;2022-12-07T06:11:56;4.75;;;2.40;;
65879;SDS011;52661;51.364;6.054;2022-12-07T06:14:41;4.97;;;2.47;;
65879;SDS011;52661;51.364;6.054;2022-12-07T06:17:07;4.40;;;2.00;;
65879;SDS011;52661;51.364;6.054;2022-12-07T06:19:33;4.22;;;2.17;;
65879;SDS011;52661;51.364;6.054;2022-12-07T06:21:58;7.32;;;2.80;;
65879;SDS011;52661;51.364;6.054;2022-12-07T06:24:24;5.78;;;2.45;;
65879;SDS011;52661;51.364;6.054;2022-12-07T06:26:50;5.00;;;2.33;;
65879;SDS011;52661;51.364;6.054;2022-12-07T06:29:16;6.57;;;2.42;;
65879;SDS011;52661;51.364;6.054;2022-12-07T06:31:42;6.47;;;2.13;;
65879;SDS011;52661;51.364;6.054;2022-12-07T06:34:11;4.63;;;2.28;;
65879;SDS011;52661;51.364;6.054;2022-12-07T06:36:38;6.40;;;2.80;;
65879;SDS011;52661;51.364;6.054;2022-12-07T06:39:05;9.65;;;2.72;;
65879;SDS011;52661;51.364;6.054;2022-12-07T06:41:31;8.80;;;2.75;;
65879;SDS011;52661;51.364;6.054;2022-12-07T06:43:56;5.45;;;2.25;;
65879;SDS011;52661;51.364;6.054;2022-12-07T06:46:21;7.77;;;2.80;;
65879;SDS011;52661;51.364;6.054;2022-12-07T06:48:47;5.22;;;2.47;;
65879;SDS011;52661;51.364;6.054;2022-12-07T06:51:13;6.13;;;2.95;;
65879;SDS011;52661;51.364;6.054;2022-12-07T06:53:38;9.55;;;3.55;;
65879;SDS011;52661;51.364;6.054;2022-12-07T06:56:04;9.80;;;3.50;;
65879;SDS011;52661;51.364;6.054;2022-12-07T06:58:29;4.40;;;2.67;;
65879;SDS011;52661;51.364;6.054;2022-12-07T07:00:55;7.85;;;2.55;;
65879;SDS011;52661;51.364;6.054;2022-12-07T07:03:21;3.92;;;2.03;;
65879;SDS011;52661;51.364;6.054;2022-12-07T07:05:46;4.20;;;2.05;;
65879;SDS011;52661;51.364;6.054;2022-12-07T07:08:12;7.53;;;2.65;;
65879;SDS011;52661;51.364;6.054;2022-12-07T07:10:38;5.72;;;2.72;;
65879;SDS011;52661;51.364;6.054;2022-12-07T07:13:04;4.95;;;2.38;;
65879;SDS011;52661;51.364;6.054;2022-12-07T07:15:30;6.95;;;2.20;;
65879;SDS011;52661;51.364;6.054;2022-12-07T07:17:55;3.67;;;2.08;;
65879;SDS011;52661;51.364;6.054;2022-12-07T07:20:21;4.83;;;2.20;;
65879;SDS011;52661;51.364;6.054;2022-12-07T07:22:47;5.28;;;1.88;;
65879;SDS011;52661;51.364;6.054;2022-12-07T07:25:12;4.35;;;1.63;;
65879;SDS011;52661;51.364;6.054;2022-12-07T07:27:38;7.82;;;3.00;;
65879;SDS011;52661;51.364;6.054;2022-12-07T07:30:04;5.77;;;2.23;;
65879;SDS011;52661;51.364;6.054;2022-12-07T07:32:29;4.80;;;2.03;;
65879;SDS011;52661;51.364;6.054;2022-12-07T07:34:55;5.33;;;1.80;;
65879;SDS011;52661;51.364;6.054;2022-12-07T07:37:20;8.60;;;2.57;;
65879;SDS011;52661;51.364;6.054;2022-12-07T07:39:45;9.10;;;2.65;;
65879;SDS011;52661;51.364;6.054;2022-12-07T07:42:11;6.55;;;1.60;;
65879;SDS011;52661;51.364;6.054;2022-12-07T07:44:36;4.45;;;2.35;;
65879;SDS011;52661;51.364;6.054;2022-12-07T07:47:02;5.57;;;2.20;;
65879;SDS011;52661;51.364;6.054;2022-12-07T07:49:28;6.70;;;1.88;;
65879;SDS011;52661;51.364;6.054;2022-12-07T07:51:53;7.90;;;2.40;;
65879;SDS011;52661;51.364;6.054;2022-12-07T07:54:19;6.75;;;2.90;;
65879;SDS011;52661;51.364;6.054;2022-12-07T07:56:44;6.97;;;2.70;;
65879;SDS011;52661;51.364;6.054;2022-12-07T07:59:09;6.30;;;1.87;;
65879;SDS011;52661;51.364;6.054;2022-12-07T08:01:35;5.80;;;2.23;;
65879;SDS011;52661;51.364;6.054;2022-12-07T08:04:00;5.70;;;2.83;;
65879;SDS011;52661;51.364;6.054;2022-12-07T08:06:26;6.55;;;1.98;;
65879;SDS011;52661;51.364;6.054;2022-12-07T08:08:51;7.25;;;2.50;;
65879;SDS011;52661;51.364;6.054;2022-12-07T08:11:17;5.88;;;1.83;;
65879;SDS011;52661;51.364;6.054;2022-12-07T08:13:44;9.57;;;2.38;;
65879;SDS011;52661;51.364;6.054;2022-12-07T08:16:12;3.75;;;1.75;;
65879;SDS011;52661;51.364;6.054;2022-12-07T08:18:38;6.05;;;1.90;;
65879;SDS011;52661;51.364;6.054;2022-12-07T08:21:05;3.95;;;1.48;;
65879;SDS011;52661;51.364;6.054;2022-12-07T08:23:32;6.78;;;1.80;;
65879;SDS011;52661;51.364;6.054;2022-12-07T08:26:05;5.70;;;1.75;;
65879;SDS011;52661;51.364;6.054;2022-12-07T08:28:33;7.57;;;1.60;;
65879;SDS011;52661;51.364;6.054;2022-12-07T08:31:02;4.63;;;2.17;;
65879;SDS011;52661;51.364;6.054;2022-12-07T08:33:29;5.20;;;1.55;;
65879;SDS011;52661;51.364;6.054;2022-12-07T08:35:54;4.50;;;1.98;;
65879;SDS011;52661;51.364;6.054;2022-12-07T08:38:24;5.28;;;2.38;;
65879;SDS011;52661;51.364;6.054;2022-12-07T08:40:53;4.57;;;2.40;;
65879;SDS011;52661;51.364;6.054;2022-12-07T08:43:21;4.30;;;1.95;;
65879;SDS011;52661;51.364;6.054;2022-12-07T08:45:47;5.32;;;2.08;;
65879;SDS011;52661;51.364;6.054;2022-12-07T08:48:21;7.32;;;2.35;;
65879;SDS011;52661;51.364;6.054;2022-12-07T08:50:49;4.53;;;2.00;;
65879;SDS011;52661;51.364;6.054;2022-12-07T08:53:15;7.03;;;3.00;;
65879;SDS011;52661;51.364;6.054;2022-12-07T08:55:41;5.45;;;1.83;;
65879;SDS011;52661;51.364;6.054;2022-12-07T08:58:06;6.73;;;2.40;;
65879;SDS011;52661;51.364;6.054;2022-12-07T09:00:32;6.60;;;2.10;;
65879;SDS011;52661;51.364;6.054;2022-12-07T09:02:57;5.37;;;2.50;;
65879;SDS011;52661;51.364;6.054;2022-12-07T09:05:22;4.33;;;1.50;;
65879;SDS011;52661;51.364;6.054;2022-12-07T09:07:50;6.70;;;2.67;;
65879;SDS011;52661;51.364;6.054;2022-12-07T09:10:19;5.55;;;2.13;;
65879;SDS011;52661;51.364;6.054;2022-12-07T09:12:44;8.63;;;2.67;;
65879;SDS011;52661;51.364;6.054;2022-12-07T09:15:09;6.53;;;1.90;;
65879;SDS011;52661;51.364;6.054;2022-12-07T09:17:35;4.17;;;1.93;;
65879;SDS011;52661;51.364;6.054;2022-12-07T09:20:01;6.05;;;2.80;;
65879;SDS011;52661;51.364;6.054;2022-12-07T09:22:30;5.85;;;2.63;;
65879;SDS011;52661;51.364;6.054;2022-12-07T09:24:59;4.35;;;2.22;;
65879;SDS011;52661;51.364;6.054;2022-12-07T09:27:26;5.95;;;1.92;;
65879;SDS011;52661;51.364;6.054;2022-12-07T09:29:53;4.68;;;2.15;;
65879;SDS011;52661;51.364;6.054;2022-12-07T09:32:18;8.65;;;2.55;;
65879;SDS011;52661;51.364;6.054;2022-12-07T09:34:44;8.13;;;2.65;;
65879;SDS011;52661;51.364;6.054;2022-12-07T09:37:09;5.22;;;2.65;;
65879;SDS011;52661;51.364;6.054;2022-12-07T09:39:37;7.30;;;2.63;;
65879;SDS011;52661;51.364;6.054;2022-12-07T09:42:03;6.57;;;2.95;;
65879;SDS011;52661;51.364;6.054;2022-12-07T09:44:30;8.73;;;2.47;;
65879;SDS011;52661;51.364;6.054;2022-12-07T09:46:56;6.15;;;2.20;;
65879;SDS011;52661;51.364;6.054;2022-12-07T09:49:24;9.70;;;3.20;;
65879;SDS011;52661;51.364;6.054;2022-12-07T09:52:03;6.70;;;2.88;;
65879;SDS011;52661;51.364;6.054;2022-12-07T09:54:44;5.40;;;2.50;;
65879;SDS011;52661;51.364;6.054;2022-12-07T09:57:13;8.93;;;2.80;;
65879;SDS011;52661;51.364;6.054;2022-12-07T09:59:39;6.25;;;2.88;;
65879;SDS011;52661;51.364;6.054;2022-12-07T10:02:21;7.25;;;2.63;;
65879;SDS011;52661;51.364;6.054;2022-12-07T10:04:50;8.20;;;2.50;;
65879;SDS011;52661;51.364;6.054;2022-12-07T10:07:15;5.53;;;2.83;;
65879;SDS011;52661;51.364;6.054;2022-12-07T10:09:41;10.87;;;2.63;;
65879;SDS011;52661;51.364;6.054;2022-12-07T10:12:09;5.85;;;2.47;;
65879;SDS011;52661;51.364;6.054;2022-12-07T10:14:38;8.30;;;3.33;;
65879;SDS011;52661;51.364;6.054;2022-12-07T10:17:48;6.13;;;2.05;;
65879;SDS011;52661;51.364;6.054;2022-12-07T10:22:37;5.75;;;2.35;;
65879;SDS011;52661;51.364;6.054;2022-12-07T10:25:17;7.68;;;2.20;;
65879;SDS011;52661;51.364;6.054;2022-12-07T10:27:44;6.70;;;2.35;;
65879;SDS011;52661;51.364;6.054;2022-12-07T10:30:22;4.60;;;2.05;;
65879;SDS011;52661;51.364;6.054;2022-12-07T10:32:47;7.45;;;2.53;;
65879;SDS011;52661;51.364;6.054;2022-12-07T10:37:44;7.18;;;2.60;;
65879;SDS011;52661;51.364;6.054;2022-12-07T10:40:30;7.25;;;2.33;;
65879;SDS011;52661;51.364;6.054;2022-12-07T10:43:12;7.20;;;2.63;;
65879;SDS011;52661;51.364;6.054;2022-12-07T10:48:17;7.15;;;2.20;;
65879;SDS011;52661;51.364;6.054;2022-12-07T10:51:02;6.57;;;2.00;;
65879;SDS011;52661;51.364;6.054;2022-12-07T11:12:57;5.93;;;2.28;;
65879;SDS011;52661;51.364;6.054;2022-12-07T11:21:07;8.43;;;2.28;;
65879;SDS011;52661;51.364;6.054;2022-12-07T11:23:46;3.75;;;1.13;;
65879;SDS011;52661;51.364;6.054;2022-12-07T11:26:34;5.80;;;1.98;;
65879;SDS011;52661;51.364;6.054;2022-12-07T11:31:54;5.88;;;1.70;;
65879;SDS011;52661;51.364;6.054;2022-12-07T11:34:35;3.83;;;1.80;;
65879;SDS011;52661;51.364;6.054;2022-12-07T11:37:07;4.28;;;2.00;;
65879;SDS011;52661;51.364;6.054;2022-12-07T11:39:44;4.50;;;1.60;;
65879;SDS011;52661;51.364;6.054;2022-12-07T11:42:27;4.95;;;1.77;;
65879;SDS011;52661;51.364;6.054;2022-12-07T11:45:30;4.47;;;2.00;;
65879;SDS011;52661;51.364;6.054;2022-12-07T11:50:38;5.75;;;1.60;;
65879;SDS011;52661;51.364;6.054;2022-12-07T11:53:19;5.93;;;1.63;;
65879;SDS011;52661;51.364;6.054;2022-12-07T11:56:09;10.23;;;2.42;;
65879;SDS011;52661;51.364;6.054;2022-12-07T12:03:38;4.93;;;1.70;;
65879;SDS011;52661;51.364;6.054;2022-12-07T12:06:08;4.75;;;1.75;;
65879;SDS011;52661;51.364;6.054;2022-12-07T12:08:35;6.30;;;1.50;;
65879;SDS011;52661;51.364;6.054;2022-12-07T12:16:45;5.07;;;1.73;;
65879;SDS011;52661;51.364;6.054;2022-12-07T12:19:42;6.95;;;1.73;;
65879;SDS011;52661;51.364;6.054;2022-12-07T12:22:52;3.65;;;1.52;;
65879;SDS011;52661;51.364;6.054;2022-12-07T12:25:21;3.53;;;1.10;;
65879;SDS011;52661;51.364;6.054;2022-12-07T12:27:48;6.65;;;1.80;;
65879;SDS011;52661;51.364;6.054;2022-12-07T12:33:03;5.13;;;2.28;;
65879;SDS011;52661;51.364;6.054;2022-12-07T12:35:35;4.22;;;1.15;;
65879;SDS011;52661;51.364;6.054;2022-12-07T12:41:50;3.42;;;1.92;;
65879;SDS011;52661;51.364;6.054;2022-12-07T12:51:57;4.53;;;1.47;;
65879;SDS011;52661;51.364;6.054;2022-12-07T12:54:27;6.78;;;2.00;;
65879;SDS011;52661;51.364;6.054;2022-12-07T12:59:26;4.35;;;1.52;;
65879;SDS011;52661;51.364;6.054;2022-12-07T13:01:55;6.30;;;1.20;;
65879;SDS011;52661;51.364;6.054;2022-12-07T13:12:55;9.02;;;2.00;;
65879;SDS011;52661;51.364;6.054;2022-12-07T13:15:40;4.78;;;1.23;;
65879;SDS011;52661;51.364;6.054;2022-12-07T13:20:43;4.37;;;0.97;;
65879;SDS011;52661;51.364;6.054;2022-12-07T13:23:12;4.68;;;1.10;;
65879;SDS011;52661;51.364;6.054;2022-12-07T13:25:54;3.47;;;0.98;;
65879;SDS011;52661;51.364;6.054;2022-12-07T13:28:26;6.03;;;1.13;;
65879;SDS011;52661;51.364;6.054;2022-12-07T13:31:02;6.00;;;1.30;;
65879;SDS011;52661;51.364;6.054;2022-12-07T13:33:35;4.95;;;0.93;;
65879;SDS011;52661;51.364;6.054;2022-12-07T13:36:00;4.35;;;0.82;;
65879;SDS011;52661;51.364;6.054;2022-12-07T13:41:03;4.82;;;1.17;;
65879;SDS011;52661;51.364;6.054;2022-12-07T13:43:48;4.90;;;1.23;;
65879;SDS011;52661;51.364;6.054;2022-12-07T13:46:19;3.80;;;1.70;;
65879;SDS011;52661;51.364;6.054;2022-12-07T13:48:52;6.03;;;0.57;;
65879;SDS011;52661;51.364;6.054;2022-12-07T13:51:19;3.15;;;0.93;;
65879;SDS011;52661;51.364;6.054;2022-12-07T13:53:53;4.65;;;0.63;;
65879;SDS011;52661;51.364;6.054;2022-12-07T13:56:25;7.18;;;1.27;;
65879;SDS011;52661;51.364;6.054;2022-12-07T13:58:56;4.57;;;1.23;;
65879;SDS011;52661;51.364;6.054;2022-12-07T14:01:21;4.88;;;0.82;;
65879;SDS011;52661;51.364;6.054;2022-12-07T14:03:47;4.78;;;0.93;;
65879;SDS011;52661;51.364;6.054;2022-12-07T14:08:44;2.85;;;0.82;;
65879;SDS011;52661;51.364;6.054;2022-12-07T14:11:13;6.20;;;1.08;;
65879;SDS011;52661;51.364;6.054;2022-12-07T14:13:45;3.65;;;0.80;;
65879;SDS011;52661;51.364;6.054;2022-12-07T14:16:22;5.35;;;0.90;;
65879;SDS011;52661;51.364;6.054;2022-12-07T14:18:50;2.00;;;0.75;;
65879;SDS011;52661;51.364;6.054;2022-12-07T14:21:17;4.32;;;0.70;;
65879;SDS011;52661;51.364;6.054;2022-12-07T14:26:48;4.47;;;0.55;;
65879;SDS011;52661;51.364;6.054;2022-12-07T14:29:18;2.22;;;1.08;;
65879;SDS011;52661;51.364;6.054;2022-12-07T14:31:45;4.07;;;0.70;;
65879;SDS011;52661;51.364;6.054;2022-12-07T14:34:13;2.70;;;0.77;;
65879;SDS011;52661;51.364;6.054;2022-12-07T14:36:39;3.13;;;0.80;;
65879;SDS011;52661;51.364;6.054;2022-12-07T14:39:04;3.75;;;0.98;;
65879;SDS011;52661;51.364;6.054;2022-12-07T14:41:30;3.20;;;1.10;;
65879;SDS011;52661;51.364;6.054;2022-12-07T14:44:14;3.13;;;0.80;;
65879;SDS011;52661;51.364;6.054;2022-12-07T14:46:39;3.30;;;0.90;;
65879;SDS011;52661;51.364;6.054;2022-12-07T14:49:04;4.20;;;0.60;;
65879;SDS011;52661;51.364;6.054;2022-12-07T14:51:30;6.15;;;1.58;;
65879;SDS011;52661;51.364;6.054;2022-12-07T14:53:55;2.65;;;0.65;;
65879;SDS011;52661;51.364;6.054;2022-12-07T14:56:21;3.58;;;0.75;;
65879;SDS011;52661;51.364;6.054;2022-12-07T14:58:46;4.80;;;1.07;;
65879;SDS011;52661;51.364;6.054;2022-12-07T15:01:13;6.55;;;1.27;;
65879;SDS011;52661;51.364;6.054;2022-12-07T15:03:39;3.92;;;0.73;;
65879;SDS011;52661;51.364;6.054;2022-12-07T15:06:04;5.33;;;1.43;;
65879;SDS011;52661;51.364;6.054;2022-12-07T15:08:31;5.00;;;1.02;;
65879;SDS011;52661;51.364;6.054;2022-12-07T15:10:56;4.60;;;1.30;;
65879;SDS011;52661;51.364;6.054;2022-12-07T15:13:22;3.77;;;1.03;;
65879;SDS011;52661;51.364;6.054;2022-12-07T15:16:08;5.22;;;1.38;;
65879;SDS011;52661;51.364;6.054;2022-12-07T15:18:35;5.78;;;1.25;;
65879;SDS011;52661;51.364;6.054;2022-12-07T15:21:01;3.70;;;1.30;;
65879;SDS011;52661;51.364;6.054;2022-12-07T15:23:26;4.23;;;0.97;;
65879;SDS011;52661;51.364;6.054;2022-12-07T15:25:51;7.27;;;1.47;;
65879;SDS011;52661;51.364;6.054;2022-12-07T15:28:17;3.90;;;1.25;;
65879;SDS011;52661;51.364;6.054;2022-12-07T15:30:43;3.33;;;1.33;;
65879;SDS011;52661;51.364;6.054;2022-12-07T15:33:09;4.00;;;1.17;;
65879;SDS011;52661;51.364;6.054;2022-12-07T15:35:38;4.47;;;1.77;;
65879;SDS011;52661;51.364;6.054;2022-12-07T15:38:05;6.68;;;1.15;;
65879;SDS011;52661;51.364;6.054;2022-12-07T15:40:30;5.60;;;1.70;;
65879;SDS011;52661;51.364;6.054;2022-12-07T15:42:56;5.15;;;1.13;;
65879;SDS011;52661;51.364;6.054;2022-12-07T15:45:22;5.00;;;1.40;;
65879;SDS011;52661;51.364;6.054;2022-12-07T15:47:47;4.83;;;1.57;;
65879;SDS011;52661;51.364;6.054;2022-12-07T15:50:14;4.17;;;1.67;;
65879;SDS011;52661;51.364;6.054;2022-12-07T15:52:40;4.07;;;1.25;;
65879;SDS011;52661;51.364;6.054;2022-12-07T15:55:06;5.95;;;1.45;;
65879;SDS011;52661;51.364;6.054;2022-12-07T15:57:35;6.53;;;1.33;;
65879;SDS011;52661;51.364;6.054;2022-12-07T16:00:05;3.33;;;1.10;;
65879;SDS011;52661;51.364;6.054;2022-12-07T16:02:33;8.05;;;1.42;;
65879;SDS011;52661;51.364;6.054;2022-12-07T16:04:59;4.90;;;1.38;;
65879;SDS011;52661;51.364;6.054;2022-12-07T16:07:24;3.63;;;1.13;;
65879;SDS011;52661;51.364;6.054;2022-12-07T16:09:49;4.53;;;1.30;;
65879;SDS011;52661;51.364;6.054;2022-12-07T16:12:15;3.80;;;1.60;;
65879;SDS011;52661;51.364;6.054;2022-12-07T16:14:41;5.60;;;1.88;;
65879;SDS011;52661;51.364;6.054;2022-12-07T16:17:07;4.78;;;1.25;;
65879;SDS011;52661;51.364;6.054;2022-12-07T16:19:33;5.38;;;0.80;;
65879;SDS011;52661;51.364;6.054;2022-12-07T16:21:59;2.65;;;1.13;;
65879;SDS011;52661;51.364;6.054;2022-12-07T16:24:25;3.33;;;0.70;;
65879;SDS011;52661;51.364;6.054;2022-12-07T16:26:51;3.35;;;0.57;;
65879;SDS011;52661;51.364;6.054;2022-12-07T16:29:20;4.35;;;1.20;;
65879;SDS011;52661;51.364;6.054;2022-12-07T16:31:47;4.40;;;1.08;;
65879;SDS011;52661;51.364;6.054;2022-12-07T16:34:13;2.78;;;0.73;;
65879;SDS011;52661;51.364;6.054;2022-12-07T16:36:38;4.93;;;0.82;;
65879;SDS011;52661;51.364;6.054;2022-12-07T16:39:04;1.90;;;0.70;;
65879;SDS011;52661;51.364;6.054;2022-12-07T16:41:30;4.47;;;0.95;;
65879;SDS011;52661;51.364;6.054;2022-12-07T16:43:56;4.43;;;0.85;;
65879;SDS011;52661;51.364;6.054;2022-12-07T16:46:21;2.95;;;1.08;;
65879;SDS011;52661;51.364;6.054;2022-12-07T16:48:46;2.55;;;0.90;;
65879;SDS011;52661;51.364;6.054;2022-12-07T16:51:12;2.90;;;0.90;;
65879;SDS011;52661;51.364;6.054;2022-12-07T16:53:39;3.85;;;1.33;;
65879;SDS011;52661;51.364;6.054;2022-12-07T16:56:09;2.78;;;0.73;;
65879;SDS011;52661;51.364;6.054;2022-12-07T16:58:36;4.53;;;1.48;;
65879;SDS011;52661;51.364;6.054;2022-12-07T17:01:08;5.80;;;1.50;;